Buoy 41991

sailwx.info

Track history (hours):
 
Tides and Currents Weather Stations Pressure Air Temp Water Temp Dewpoint Dewpoint Depression Visibility Wind Speed Wind Dir Waves Ship Positions

Drifting buoy 41991

Last reported at 2016-Feb-07 12:52 UTC. Time now 2016-Feb-07 15:13 UTC.
Position N 29°12' W 043°09'.

Water temperature 21.0 ° C

Date/timePositionNaut miles runAvg speedWind from/ knotsBaromVisibWave heightAir tempDewpointWater temp
2016-Feb-07 12:52N 29°12' W 043°09'0 1.5 21.0
2016-Feb-07 12:42N 29°13' W 043°09'0 0.0 21.0
2016-Feb-07 11:55N 29°13' W 043°09'0 2.9 21.0
2016-Feb-07 11:50N 29°12' W 043°09'0 0.0 21.0
2016-Feb-07 11:05N 29°12' W 043°09'0 0.0 20.9
2016-Feb-07 10:49N 29°12' W 043°09'0 0.2 20.9
2016-Feb-07 10:31N 29°12' W 043°09'0 0.3 20.9
2016-Feb-07 09:09N 29°13' W 043°09'0 0.3 21.0
2016-Feb-07 07:40N 29°13' W 043°09'0 2.0 20.9
2016-Feb-07 07:33N 29°13' W 043°08'0 1.9 20.9
2016-Feb-07 07:26N 29°13' W 043°09'0 4.3
2016-Feb-07 07:22N 29°14' W 043°08'0 0.0 21.0
2016-Feb-07 07:10N 29°14' W 043°08'0 0.3 21.0
2016-Feb-07 05:44N 29°14' W 043°09'0 0.2 20.9
2016-Feb-07 04:06N 29°14' W 043°09'0 0.0 20.9
2016-Feb-07 01:15N 29°14' W 043°09'0 1.4 20.9
2016-Feb-07 01:10N 29°14' W 043°09'0 0.3 20.9
2016-Feb-07 00:29N 29°14' W 043°09'0 0.1 20.9
2016-Feb-06 22:09N 29°14' W 043°09'0 6.4 21.0
2016-Feb-06 22:06N 29°15' W 043°09'0 0.0 21.0
2016-Feb-06 20:46N 29°15' W 043°09'0 0.2 21.0
2016-Feb-06 19:04N 29°15' W 043°09'1 0.4 21.1
2016-Feb-06 17:28N 29°15' W 043°08'1 0.2 21.1
2016-Feb-06 13:59N 29°15' W 043°08'1 0.7 21.0
2016-Feb-06 13:09N 29°15' W 043°08'0 0.1 21.0
2016-Feb-06 12:14N 29°15' W 043°08'0 0.7 20.9
2016-Feb-06 11:31N 29°15' W 043°07'1 6.3 20.9
2016-Feb-06 11:26N 29°15' W 043°08'0 0.0 20.9
2016-Feb-06 11:01N 29°15' W 043°08'0 0.0 20.9
2016-Feb-06 10:52N 29°15' W 043°08'1 0.3 20.9
2016-Feb-06 08:15N 29°16' W 043°08'0 0.6 20.9
2016-Feb-06 07:41N 29°16' W 043°07'0 4.1 20.9
2016-Feb-06 07:34N 29°16' W 043°07'0 0.0 20.9
2016-Feb-06 06:30N 29°16' W 043°07'0 0.0
2016-Feb-06 06:03N 29°16' W 043°07'1 0.3 20.9
2016-Feb-06 01:35N 29°18' W 043°07'0 2.9 21.0
2016-Feb-06 01:30N 29°18' W 043°07'0 0.1 21.0
2016-Feb-05 23:09N 29°18' W 043°06'1 0.3 21.1
2016-Feb-05 20:55N 29°19' W 043°06'0 0.2 21.1
2016-Feb-05 19:16N 29°19' W 043°06'1 0.4 21.2
2016-Feb-05 17:39N 29°19' W 043°06'4 0.5 21.3
2016-Feb-05 10:53N 29°23' W 043°04'0 0.0 21.3
2016-Feb-05 09:31N 29°23' W 043°04'1 1.0 21.3
2016-Feb-05 08:46N 29°23' W 043°04'1 0.7 21.3
2016-Feb-05 07:53N 29°24' W 043°05'0 0.5 21.2
2016-Feb-05 07:04N 29°24' W 043°05'0 0.4 21.1
2016-Feb-05 06:09N 29°24' W 043°04'1 0.3 21.0
2016-Feb-05 01:52N 29°24' W 043°03'0 0.0 21.3
2016-Feb-05 01:08N 29°24' W 043°03'0 6.8 21.3
2016-Feb-05 01:04N 29°23' W 043°02'0 0.2 21.3
2016-Feb-04 23:28N 29°24' W 043°03'0 0.1 21.4
2016-Feb-04 22:36N 29°24' W 043°03'1 0.5 21.4
2016-Feb-04 21:21N 29°23' W 043°02'0 0.2 21.4
2016-Feb-04 19:54N 29°23' W 043°02'0 1.5 21.4
2016-Feb-04 19:40N 29°23' W 043°02'0 2.2 21.5
2016-Feb-04 19:27N 29°24' W 043°01'0 0.1 21.5
2016-Feb-04 17:51N 29°24' W 043°01'0 0.0 21.5
2016-Feb-04 16:09N 29°24' W 043°01'0 0.2 21.5
2016-Feb-04 14:38N 29°23' W 043°01'0 0.0 21.4
2016-Feb-04 13:54N 29°23' W 043°01'1 0.3 21.4
2016-Feb-04 12:05N 29°24' W 043°00'0 0.1 21.4
2016-Feb-04 09:58N 29°24' W 043°00'0 0.0 21.4
2016-Feb-04 07:55N 29°24' W 043°00'1 0.1 21.4
2016-Feb-03 22:55N 29°24' W 042°60'0 0.1 21.4
2016-Feb-03 20:04N 29°25' W 042°59'1 0.3 21.4
2016-Feb-03 18:01N 29°25' W 042°59'1 6.0 21.4
2016-Feb-03 17:55N 29°25' W 042°58'2 0.2 21.4
2016-Feb-03 09:56N 29°26' W 042°56'0 0.2 20.7
2016-Feb-03 08:16N 29°26' W 042°57'0 0.5 20.7
2016-Feb-03 08:09N 29°26' W 042°57'2 0.2 20.7
2016-Feb-03 00:55N 29°24' W 042°56'1 0.2 20.9
2016-Feb-02 22:09N 29°24' W 042°56'026.0 21.0
2016-Feb-02 22:08N 29°23' W 042°56'1 0.3 21.0
2016-Feb-02 20:33N 29°23' W 042°56'1 0.4 21.1
2016-Feb-02 18:50N 29°22' W 042°56'2 0.4 21.1
2016-Feb-02 14:47N 29°21' W 042°54'0 0.0 21.1
2016-Feb-02 13:43N 29°21' W 042°54'0 0.0 21.1
2016-Feb-02 12:55N 29°21' W 042°54'1 0.6 21.0
2016-Feb-02 11:56N 29°21' W 042°55'0 1.8 21.0
2016-Feb-02 11:54N 29°21' W 042°55'0 0.2 21.0
2016-Feb-02 10:53N 29°21' W 042°55'0 0.4 21.0
2016-Feb-02 10:09N 29°21' W 042°55'1 4.5 21.0
2016-Feb-02 10:02N 29°20' W 042°55'0 0.1 21.0
2016-Feb-02 08:20N 29°20' W 042°55'0 0.0 21.1
2016-Feb-02 07:34N 29°20' W 042°55'0 0.3 21.1
2016-Feb-02 07:00N 29°20' W 042°55'1 0.4 21.1
2016-Feb-02 05:00N 29°20' W 042°54'1 0.1 21.1
2016-Feb-01 20:55N 29°20' W 042°54'0 0.4 21.4
2016-Feb-01 20:04N 29°20' W 042°54'0 1.3 21.4
2016-Feb-01 19:55N 29°20' W 042°54'0 3.1 21.4
2016-Feb-01 19:48N 29°20' W 042°54'0 0.8 21.4
2016-Feb-01 19:15N 29°20' W 042°54'0 0.1 21.4
2016-Feb-01 16:44N 29°20' W 042°54'0 0.3 21.4
2016-Feb-01 15:00N 29°20' W 042°54'0 0.0 21.4
2016-Feb-01 14:02N 29°20' W 042°54'0 0.2 21.4
2016-Feb-01 13:08N 29°20' W 042°54'0 0.1 21.4
2016-Feb-01 12:11N 29°20' W 042°54'0 0.0
2016-Feb-01 10:19N 29°20' W 042°54'0 5.1 21.5
2016-Feb-01 10:15N 29°19' W 042°54'0 0.0 21.5
2016-Feb-01 09:41N 29°19' W 042°54'0 1.4 21.5
2016-Feb-01 09:36N 29°20' W 042°54'0 7.0 21.5
2016-Feb-01 09:32N 29°19' W 042°54'0 0.1 21.5
2016-Feb-01 07:56N 29°19' W 042°54'0 0.5 21.5
2016-Feb-01 07:31N 29°19' W 042°54'0 0.1 21.5
2016-Feb-01 07:02N 29°19' W 042°54'1 0.4 21.5
2016-Feb-01 05:14N 29°19' W 042°53'0 0.0 21.5
2016-Feb-01 01:40N 29°19' W 042°53'1 5.5 21.6
2016-Feb-01 01:34N 29°19' W 042°53'1 0.3 21.6
2016-Jan-31 23:10N 29°18' W 042°54'0 0.4 21.6
2016-Jan-31 22:18N 29°18' W 042°54'0 4.0 21.7
2016-Jan-31 22:13N 29°18' W 042°53'0 0.0 21.7
2016-Jan-31 21:53N 29°18' W 042°53'0 1.6 21.7
2016-Jan-31 21:48N 29°18' W 042°53'1 0.4 21.7
2016-Jan-31 20:20N 29°18' W 042°54'0 2.5 21.7
2016-Jan-31 20:15N 29°18' W 042°54'0 1.4 21.7
2016-Jan-31 20:10N 29°18' W 042°54'0 0.0 21.7
2016-Jan-31 20:08N 29°18' W 042°54'0 0.0 21.7
2016-Jan-31 19:41N 29°18' W 042°54'0 0.3 21.7
2016-Jan-31 18:35N 29°17' W 042°54'113.2 21.8
2016-Jan-31 18:32N 29°17' W 042°54'0 0.0 21.8
2016-Jan-31 16:55N 29°17' W 042°54'0 0.2 21.8
2016-Jan-31 14:20N 29°17' W 042°53'0 0.0 21.7
2016-Jan-31 13:36N 29°17' W 042°53'0 0.2 21.7
2016-Jan-31 12:33N 29°17' W 042°54'0 0.2 21.7
2016-Jan-31 11:52N 29°17' W 042°54'0 0.2 21.7
2016-Jan-31 10:32N 29°16' W 042°54'1 1.4 21.6
2016-Jan-31 09:58N 29°16' W 042°53'0 0.0 21.6
2016-Jan-31 08:49N 29°16' W 042°53'0 4.3 21.6
2016-Jan-31 08:43N 29°16' W 042°54'0 0.6 21.6
2016-Jan-31 08:24N 29°15' W 042°54'0 0.6 21.6
2016-Jan-31 08:04N 29°16' W 042°54'0 0.2 21.6
2016-Jan-31 07:09N 29°15' W 042°54'2 0.4 21.5
2016-Jan-31 01:58N 29°13' W 042°53'0 0.2 21.4
2016-Jan-31 01:10N 29°13' W 042°53'0 0.3 21.4
2016-Jan-31 00:22N 29°14' W 042°53'0 0.3 21.4
2016-Jan-30 23:34N 29°14' W 042°53'0 0.0 21.4
2016-Jan-30 23:30N 29°14' W 042°53'0 0.2 21.4
2016-Jan-30 22:40N 29°14' W 042°53'113.5 21.4
2016-Jan-30 22:35N 29°13' W 042°53'0 0.1 21.4
2016-Jan-30 20:25N 29°13' W 042°53'1 9.6 21.4
2016-Jan-30 20:20N 29°12' W 042°53'0 0.0 21.4
2016-Jan-30 20:07N 29°12' W 042°53'2 0.6 21.4
2016-Jan-30 17:07N 29°11' W 042°52'0 0.0 21.4
2016-Jan-30 16:58N 29°11' W 042°52'1 0.3
2016-Jan-30 13:56N 29°10' W 042°51'1 0.6 21.4
2016-Jan-30 11:17N 29°09' W 042°50'1 0.5 21.4
2016-Jan-30 08:44N 29°08' W 042°49'1 0.7 21.4
2016-Jan-30 07:15N 29°07' W 042°48'2 0.7 21.4
2016-Jan-30 03:55N 29°05' W 042°47'0 0.0 21.4
2016-Jan-29 23:54N 29°05' W 042°47'2 1.0 21.4
2016-Jan-29 22:09N 29°03' W 042°46'1 0.5 21.4
2016-Jan-29 19:36N 29°02' W 042°46'1 1.8 21.4
2016-Jan-29 18:55N 29°01' W 042°45'0 0.0 21.4
2016-Jan-29 17:17N 29°01' W 042°45'2 0.7 21.4
2016-Jan-29 14:17N 28°59' W 042°44'1 0.7 21.3
2016-Jan-29 12:31N 28°59' W 042°43'010.1 21.3
2016-Jan-29 12:30N 28°59' W 042°43'1 1.3 21.3
2016-Jan-29 11:38N 28°57' W 042°43'0 0.1 21.3
2016-Jan-29 10:52N 28°57' W 042°43'1 0.3 21.3
2016-Jan-29 09:08N 28°57' W 042°43'0 0.0 21.4
2016-Jan-29 07:35N 28°57' W 042°43'111.6 21.4
2016-Jan-29 07:32N 28°57' W 042°43'2 0.4 21.4
2016-Jan-29 01:01N 28°55' W 042°42'113.0 21.7
2016-Jan-29 00:56N 28°54' W 042°41'1 1.6 21.7
2016-Jan-29 00:15N 28°53' W 042°42'0 0.0 21.7
2016-Jan-28 23:21N 28°53' W 042°42'222.3 21.7
2016-Jan-28 23:16N 28°52' W 042°41'0 0.0 21.7
2016-Jan-28 23:11N 28°52' W 042°41'1 0.3
2016-Jan-28 20:48N 28°51' W 042°40'1 0.9 21.8
2016-Jan-28 20:03N 28°50' W 042°41'0 0.0
2016-Jan-28 19:08N 28°50' W 042°41'0 4.2 21.8
2016-Jan-28 19:05N 28°50' W 042°41'1 0.5 21.8
2016-Jan-28 17:25N 28°50' W 042°40'1 0.4 21.9
2016-Jan-28 13:45N 28°48' W 042°40'0 0.0 22.0
2016-Jan-28 12:54N 28°48' W 042°40'0 3.6 22.0
2016-Jan-28 12:52N 28°48' W 042°40'   22.0
Track history (hours):
 
Tides and Currents Weather Stations Pressure Air Temp Water Temp Dewpoint Dewpoint Depression Visibility Wind Speed Wind Dir Waves Ship Positions

Drifting buoy 41991

Last reported at 2016-Feb-07 12:52 UTC. Time now 2016-Feb-07 15:13 UTC.
Position N 29°12' W 043°09'.

Water temperature 21.0 ° C

Date/timePositionNaut miles runAvg speedWind from/ knotsBaromVisibWave heightAir tempDewpointWater temp
2016-Feb-07 12:52N 29°12' W 043°09'0 1.5 21.0
2016-Feb-07 12:42N 29°13' W 043°09'0 0.0 21.0
2016-Feb-07 11:55N 29°13' W 043°09'0 2.9 21.0
2016-Feb-07 11:50N 29°12' W 043°09'0 0.0 21.0
2016-Feb-07 11:05N 29°12' W 043°09'0 0.0 20.9
2016-Feb-07 10:49N 29°12' W 043°09'0 0.2 20.9
2016-Feb-07 10:31N 29°12' W 043°09'0 0.3 20.9
2016-Feb-07 09:09N 29°13' W 043°09'0 0.3 21.0
2016-Feb-07 07:40N 29°13' W 043°09'0 2.0 20.9
2016-Feb-07 07:33N 29°13' W 043°08'0 1.9 20.9
2016-Feb-07 07:26N 29°13' W 043°09'0 4.3
2016-Feb-07 07:22N 29°14' W 043°08'0 0.0 21.0
2016-Feb-07 07:10N 29°14' W 043°08'0 0.3 21.0
2016-Feb-07 05:44N 29°14' W 043°09'0 0.2 20.9
2016-Feb-07 04:06N 29°14' W 043°09'0 0.0 20.9
2016-Feb-07 01:15N 29°14' W 043°09'0 1.4 20.9
2016-Feb-07 01:10N 29°14' W 043°09'0 0.3 20.9
2016-Feb-07 00:29N 29°14' W 043°09'0 0.1 20.9
2016-Feb-06 22:09N 29°14' W 043°09'0 6.4 21.0
2016-Feb-06 22:06N 29°15' W 043°09'0 0.0 21.0
2016-Feb-06 20:46N 29°15' W 043°09'0 0.2 21.0
2016-Feb-06 19:04N 29°15' W 043°09'1 0.4 21.1
2016-Feb-06 17:28N 29°15' W 043°08'1 0.2 21.1
2016-Feb-06 13:59N 29°15' W 043°08'1 0.7 21.0
2016-Feb-06 13:09N 29°15' W 043°08'0 0.1 21.0
2016-Feb-06 12:14N 29°15' W 043°08'0 0.7 20.9
2016-Feb-06 11:31N 29°15' W 043°07'1 6.3 20.9
2016-Feb-06 11:26N 29°15' W 043°08'0 0.0 20.9
2016-Feb-06 11:01N 29°15' W 043°08'0 0.0 20.9
2016-Feb-06 10:52N 29°15' W 043°08'1 0.3 20.9
2016-Feb-06 08:15N 29°16' W 043°08'0 0.6 20.9
2016-Feb-06 07:41N 29°16' W 043°07'0 4.1 20.9
2016-Feb-06 07:34N 29°16' W 043°07'0 0.0 20.9
2016-Feb-06 06:30N 29°16' W 043°07'0 0.0
2016-Feb-06 06:03N 29°16' W 043°07'1 0.3 20.9
2016-Feb-06 01:35N 29°18' W 043°07'0 2.9 21.0
2016-Feb-06 01:30N 29°18' W 043°07'0 0.1 21.0
2016-Feb-05 23:09N 29°18' W 043°06'1 0.3 21.1
2016-Feb-05 20:55N 29°19' W 043°06'0 0.2 21.1
2016-Feb-05 19:16N 29°19' W 043°06'1 0.4 21.2
2016-Feb-05 17:39N 29°19' W 043°06'4 0.5 21.3
2016-Feb-05 10:53N 29°23' W 043°04'0 0.0 21.3
2016-Feb-05 09:31N 29°23' W 043°04'1 1.0 21.3
2016-Feb-05 08:46N 29°23' W 043°04'1 0.7 21.3
2016-Feb-05 07:53N 29°24' W 043°05'0 0.5 21.2
2016-Feb-05 07:04N 29°24' W 043°05'0 0.4 21.1
2016-Feb-05 06:09N 29°24' W 043°04'1 0.3 21.0
2016-Feb-05 01:52N 29°24' W 043°03'0 0.0 21.3
2016-Feb-05 01:08N 29°24' W 043°03'0 6.8 21.3
2016-Feb-05 01:04N 29°23' W 043°02'0 0.2 21.3
2016-Feb-04 23:28N 29°24' W 043°03'0 0.1 21.4
2016-Feb-04 22:36N 29°24' W 043°03'1 0.5 21.4
2016-Feb-04 21:21N 29°23' W 043°02'0 0.2 21.4
2016-Feb-04 19:54N 29°23' W 043°02'0 1.5 21.4
2016-Feb-04 19:40N 29°23' W 043°02'0 2.2 21.5
2016-Feb-04 19:27N 29°24' W 043°01'0 0.1 21.5
2016-Feb-04 17:51N 29°24' W 043°01'0 0.0 21.5
2016-Feb-04 16:09N 29°24' W 043°01'0 0.2 21.5
2016-Feb-04 14:38N 29°23' W 043°01'0 0.0 21.4
2016-Feb-04 13:54N 29°23' W 043°01'1 0.3 21.4
2016-Feb-04 12:05N 29°24' W 043°00'0 0.1 21.4
2016-Feb-04 09:58N 29°24' W 043°00'0 0.0 21.4
2016-Feb-04 07:55N 29°24' W 043°00'1 0.1 21.4
2016-Feb-03 22:55N 29°24' W 042°60'0 0.1 21.4
2016-Feb-03 20:04N 29°25' W 042°59'1 0.3 21.4
2016-Feb-03 18:01N 29°25' W 042°59'1 6.0 21.4
2016-Feb-03 17:55N 29°25' W 042°58'2 0.2 21.4
2016-Feb-03 09:56N 29°26' W 042°56'0 0.2 20.7
2016-Feb-03 08:16N 29°26' W 042°57'0 0.5 20.7
2016-Feb-03 08:09N 29°26' W 042°57'2 0.2 20.7
2016-Feb-03 00:55N 29°24' W 042°56'1 0.2 20.9
2016-Feb-02 22:09N 29°24' W 042°56'026.0 21.0
2016-Feb-02 22:08N 29°23' W 042°56'1 0.3 21.0
2016-Feb-02 20:33N 29°23' W 042°56'1 0.4 21.1
2016-Feb-02 18:50N 29°22' W 042°56'2 0.4 21.1
2016-Feb-02 14:47N 29°21' W 042°54'0 0.0 21.1
2016-Feb-02 13:43N 29°21' W 042°54'0 0.0 21.1
2016-Feb-02 12:55N 29°21' W 042°54'1 0.6 21.0
2016-Feb-02 11:56N 29°21' W 042°55'0 1.8 21.0
2016-Feb-02 11:54N 29°21' W 042°55'0 0.2 21.0
2016-Feb-02 10:53N 29°21' W 042°55'0 0.4 21.0
2016-Feb-02 10:09N 29°21' W 042°55'1 4.5 21.0
2016-Feb-02 10:02N 29°20' W 042°55'0 0.1 21.0
2016-Feb-02 08:20N 29°20' W 042°55'0 0.0 21.1
2016-Feb-02 07:34N 29°20' W 042°55'0 0.3 21.1
2016-Feb-02 07:00N 29°20' W 042°55'1 0.4 21.1
2016-Feb-02 05:00N 29°20' W 042°54'1 0.1 21.1
2016-Feb-01 20:55N 29°20' W 042°54'0 0.4 21.4
2016-Feb-01 20:04N 29°20' W 042°54'0 1.3 21.4
2016-Feb-01 19:55N 29°20' W 042°54'0 3.1 21.4
2016-Feb-01 19:48N 29°20' W 042°54'0 0.8 21.4
2016-Feb-01 19:15N 29°20' W 042°54'0 0.1 21.4
2016-Feb-01 16:44N 29°20' W 042°54'0 0.3 21.4
2016-Feb-01 15:00N 29°20' W 042°54'0 0.0 21.4
2016-Feb-01 14:02N 29°20' W 042°54'0 0.2 21.4
2016-Feb-01 13:08N 29°20' W 042°54'0 0.1 21.4
2016-Feb-01 12:11N 29°20' W 042°54'0 0.0
2016-Feb-01 10:19N 29°20' W 042°54'0 5.1 21.5
2016-Feb-01 10:15N 29°19' W 042°54'0 0.0 21.5
2016-Feb-01 09:41N 29°19' W 042°54'0 1.4 21.5
2016-Feb-01 09:36N 29°20' W 042°54'0 7.0 21.5
2016-Feb-01 09:32N 29°19' W 042°54'0 0.1 21.5
2016-Feb-01 07:56N 29°19' W 042°54'0 0.5 21.5
2016-Feb-01 07:31N 29°19' W 042°54'0 0.1 21.5
2016-Feb-01 07:02N 29°19' W 042°54'1 0.4 21.5
2016-Feb-01 05:14N 29°19' W 042°53'0 0.0 21.5
2016-Feb-01 01:40N 29°19' W 042°53'1 5.5 21.6
2016-Feb-01 01:34N 29°19' W 042°53'1 0.3 21.6
2016-Jan-31 23:10N 29°18' W 042°54'0 0.4 21.6
2016-Jan-31 22:18N 29°18' W 042°54'0 4.0 21.7
2016-Jan-31 22:13N 29°18' W 042°53'0 0.0 21.7
2016-Jan-31 21:53N 29°18' W 042°53'0 1.6 21.7
2016-Jan-31 21:48N 29°18' W 042°53'1 0.4 21.7
2016-Jan-31 20:20N 29°18' W 042°54'0 2.5 21.7
2016-Jan-31 20:15N 29°18' W 042°54'0 1.4 21.7
2016-Jan-31 20:10N 29°18' W 042°54'0 0.0 21.7
2016-Jan-31 20:08N 29°18' W 042°54'0 0.0 21.7
2016-Jan-31 19:41N 29°18' W 042°54'0 0.3 21.7
2016-Jan-31 18:35N 29°17' W 042°54'113.2 21.8
2016-Jan-31 18:32N 29°17' W 042°54'0 0.0 21.8
2016-Jan-31 16:55N 29°17' W 042°54'0 0.2 21.8
2016-Jan-31 14:20N 29°17' W 042°53'0 0.0 21.7
2016-Jan-31 13:36N 29°17' W 042°53'0 0.2 21.7
2016-Jan-31 12:33N 29°17' W 042°54'0 0.2 21.7
2016-Jan-31 11:52N 29°17' W 042°54'0 0.2 21.7
2016-Jan-31 10:32N 29°16' W 042°54'1 1.4 21.6
2016-Jan-31 09:58N 29°16' W 042°53'0 0.0 21.6
2016-Jan-31 08:49N 29°16' W 042°53'0 4.3 21.6
2016-Jan-31 08:43N 29°16' W 042°54'0 0.6 21.6
2016-Jan-31 08:24N 29°15' W 042°54'0 0.6 21.6
2016-Jan-31 08:04N 29°16' W 042°54'0 0.2 21.6
2016-Jan-31 07:09N 29°15' W 042°54'2 0.4 21.5
2016-Jan-31 01:58N 29°13' W 042°53'0 0.2 21.4
2016-Jan-31 01:10N 29°13' W 042°53'0 0.3 21.4
2016-Jan-31 00:22N 29°14' W 042°53'0 0.3 21.4
2016-Jan-30 23:34N 29°14' W 042°53'0 0.0 21.4
2016-Jan-30 23:30N 29°14' W 042°53'0 0.2 21.4
2016-Jan-30 22:40N 29°14' W 042°53'113.5 21.4
2016-Jan-30 22:35N 29°13' W 042°53'0 0.1 21.4
2016-Jan-30 20:25N 29°13' W 042°53'1 9.6 21.4
2016-Jan-30 20:20N 29°12' W 042°53'0 0.0 21.4
2016-Jan-30 20:07N 29°12' W 042°53'2 0.6 21.4
2016-Jan-30 17:07N 29°11' W 042°52'0 0.0 21.4
2016-Jan-30 16:58N 29°11' W 042°52'1 0.3
2016-Jan-30 13:56N 29°10' W 042°51'1 0.6 21.4
2016-Jan-30 11:17N 29°09' W 042°50'1 0.5 21.4
2016-Jan-30 08:44N 29°08' W 042°49'1 0.7 21.4
2016-Jan-30 07:15N 29°07' W 042°48'2 0.7 21.4
2016-Jan-30 03:55N 29°05' W 042°47'0 0.0 21.4
2016-Jan-29 23:54N 29°05' W 042°47'2 1.0 21.4
2016-Jan-29 22:09N 29°03' W 042°46'1 0.5 21.4
2016-Jan-29 19:36N 29°02' W 042°46'1 1.8 21.4
2016-Jan-29 18:55N 29°01' W 042°45'0 0.0 21.4
2016-Jan-29 17:17N 29°01' W 042°45'2 0.7 21.4
2016-Jan-29 14:17N 28°59' W 042°44'1 0.7 21.3
2016-Jan-29 12:31N 28°59' W 042°43'010.1 21.3
2016-Jan-29 12:30N 28°59' W 042°43'1 1.3 21.3
2016-Jan-29 11:38N 28°57' W 042°43'0 0.1 21.3
2016-Jan-29 10:52N 28°57' W 042°43'1 0.3 21.3
2016-Jan-29 09:08N 28°57' W 042°43'0 0.0 21.4
2016-Jan-29 07:35N 28°57' W 042°43'111.6 21.4
2016-Jan-29 07:32N 28°57' W 042°43'2 0.4 21.4
2016-Jan-29 01:01N 28°55' W 042°42'113.0 21.7
2016-Jan-29 00:56N 28°54' W 042°41'1 1.6 21.7
2016-Jan-29 00:15N 28°53' W 042°42'0 0.0 21.7
2016-Jan-28 23:21N 28°53' W 042°42'222.3 21.7
2016-Jan-28 23:16N 28°52' W 042°41'0 0.0 21.7
2016-Jan-28 23:11N 28°52' W 042°41'1 0.3
2016-Jan-28 20:48N 28°51' W 042°40'1 0.9 21.8
2016-Jan-28 20:03N 28°50' W 042°41'0 0.0
2016-Jan-28 19:08N 28°50' W 042°41'0 4.2 21.8
2016-Jan-28 19:05N 28°50' W 042°41'1 0.5 21.8
2016-Jan-28 17:25N 28°50' W 042°40'1 0.4 21.9
2016-Jan-28 13:45N 28°48' W 042°40'0 0.0 22.0
2016-Jan-28 12:54N 28°48' W 042°40'0 3.6 22.0
2016-Jan-28 12:52N 28°48' W 042°40'   22.0

Dump ship's entire track history